Ωριαία Μετεωρολογικά Δεδομένα Σταθμού Βασιλικών
Ωριαία Μετεωρολογικά Δεδομένα Σταθμού Βασιλικών.
Παρέχεται η δυνατότητα πρόσβασης σε resource δεδομένα μέσω του DKAN Datastore Web API με δυνατότητα επιστροφής των αποτελεσμάτων σε XML ή JSON
| Date | Time | ΒΑΣΙΛΙΚΑ Humidity | ΒΑΣΙΛΙΚΑ Rain | ΒΑΣΙΛΙΚΑ WIND DIRECTION | ΒΑΣΙΛΙΚΑ WIND SPEED | ΒΑΣΙΛΙΚΑ BAROMETER | ΒΑΣΙΛΙΚΑ AIR TEMP | ΒΑΣΙΛΙΚΑ SOLAR | ΒΑΣΙΛΙΚΑ Rain Duration |
|---|---|---|---|---|---|---|---|---|---|
| 08/05/2026 | 20:30:00 | 40.0 | 0.0 | * | 99.9 | 990.1 | 18.5 | 0.0 | 0.0 |
| 08/05/2026 | 20:00:00 | 37.6 | 0.0 | * | 99.9 | 989.7 | 18.6 | 1.0 | 0.0 |
| 08/05/2026 | 19:30:00 | 41.2 | 0.0 | * | 99.9 | 989.8 | 19.0 | 23.0 | 0.0 |
| 08/05/2026 | 19:00:00 | 36.1 | 0.0 | * | 99.9 | 990.8 | 20.0 | 25.0 | 0.0 |
| 08/05/2026 | 18:30:00 | 33.8 | 0.0 | * | 99.9 | 991.1 | 20.2 | 44.0 | 0.0 |
| 08/05/2026 | 18:00:00 | 35.5 | 0.0 | * | 99.9 | 990.8 | 21.3 | 79.0 | 0.0 |
| 08/05/2026 | 17:30:00 | 33.6 | 0.0 | * | 99.9 | 990.8 | 22.7 | 136.0 | 0.0 |
| 08/05/2026 | 17:00:00 | 33.6 | 0.0 | * | 99.9 | 990.7 | 23.1 | 441.0 | 0.0 |
| 08/05/2026 | 16:30:00 | 37.0 | 0.0 | * | 99.9 | 991.1 | 22.2 | 329.0 | 0.0 |
| 08/05/2026 | 16:00:00 | 34.5 | 0.0 | * | 99.9 | 991.1 | 22.6 | 268.0 | 0.0 |
| 08/05/2026 | 15:30:00 | 28.3 | 0.0 | * | 99.9 | 991.2 | 24.2 | 282.0 | 0.0 |
| 08/05/2026 | 15:00:00 | 27.2 | 0.0 | * | 99.9 | 991.1 | 24.2 | 543.0 | 0.0 |
| 08/05/2026 | 14:30:00 | 34.4 | 0.0 | * | 99.9 | 991.9 | 23.3 | 472.0 | 0.0 |
| 08/05/2026 | 14:00:00 | 42.7 | 0.0 | * | 99.9 | 992.2 | 22.1 | 349.0 | 0.0 |
| 08/05/2026 | 13:30:00 | 43.4 | 0.0 | * | 99.9 | 992.4 | 21.9 | 344.0 | 0.0 |
| 08/05/2026 | 13:00:00 | 43.8 | 0.0 | * | 99.9 | 992.4 | 21.5 | 344.0 | 0.0 |
| 08/05/2026 | 12:30:00 | 46.5 | 0.0 | * | 99.9 | 992.3 | 21.5 | 326.0 | 0.0 |
| 08/05/2026 | 12:00:00 | 49.7 | 0.0 | * | 99.9 | 992.8 | 21.4 | 390.0 | 0.0 |
| 08/05/2026 | 11:30:00 | 50.1 | 0.0 | * | 99.9 | 992.9 | 21.1 | 526.0 | 0.0 |
| 08/05/2026 | 11:00:00 | 46.0 | 0.0 | * | 99.9 | 993.0 | 21.2 | 255.0 | 0.0 |
| 08/05/2026 | 10:30:00 | 40.4 | 0.0 | * | 99.9 | 992.3 | 20.9 | 338.0 | 0.0 |
| 08/05/2026 | 10:00:00 | 41.5 | 0.0 | * | 99.9 | 992.2 | 21.1 | 351.0 | 0.0 |
| 08/05/2026 | 09:30:00 | 45.4 | 0.0 | * | 99.9 | 991.7 | 21.0 | 367.0 | 0.0 |
| 08/05/2026 | 09:00:00 | 51.7 | 0.0 | * | 99.9 | 991.1 | 19.5 | 211.0 | 0.0 |
| 08/05/2026 | 08:30:00 | 51.3 | 0.0 | * | 99.9 | 989.8 | 19.5 | 244.0 | 0.0 |
| 08/05/2026 | 08:00:00 | 45.6 | 0.0 | * | 99.9 | 989.7 | 19.3 | 268.0 | 0.0 |
| 08/05/2026 | 07:30:00 | 39.0 | 0.0 | * | 99.9 | 990.1 | 18.2 | 112.0 | 0.0 |
| 08/05/2026 | 07:00:00 | 42.4 | 0.0 | * | 99.9 | 989.9 | 17.0 | 35.0 | 0.0 |
| 08/05/2026 | 06:30:00 | 35.7 | 0.0 | * | 99.9 | 989.1 | 17.6 | 13.0 | 0.0 |
| 08/05/2026 | 06:00:00 | 29.7 | 0.0 | * | 99.9 | 989.3 | 18.0 | 2.0 | 0.0 |
| 08/05/2026 | 05:30:00 | 34.3 | 0.0 | * | 99.9 | 989.9 | 18.0 | 0.0 | 0.0 |
| 08/05/2026 | 05:00:00 | 35.4 | 0.0 | * | 99.9 | 990.1 | 17.4 | 0.0 | 0.0 |
| 08/05/2026 | 04:30:00 | 38.1 | 0.0 | * | 99.9 | 990.3 | 17.1 | 0.0 | 0.0 |
| 08/05/2026 | 04:00:00 | 34.6 | 0.0 | * | 99.9 | 990.2 | 17.4 | 0.0 | 0.0 |
| 08/05/2026 | 03:30:00 | 39.8 | 0.0 | * | 99.9 | 990.4 | 17.4 | 0.0 | 0.0 |
| 08/05/2026 | 03:00:00 | 36.7 | 0.0 | * | 99.9 | 990.6 | 17.4 | 0.0 | 0.0 |
| 08/05/2026 | 02:30:00 | 39.3 | 0.0 | * | 99.9 | 991.0 | 16.8 | 0.0 | 0.0 |
| 08/05/2026 | 02:00:00 | 38.7 | 0.0 | * | 99.9 | 991.3 | 17.0 | 0.0 | 0.0 |
| 08/05/2026 | 01:30:00 | 37.3 | 0.0 | * | 99.9 | 991.5 | 17.1 | 0.0 | 0.0 |
| 08/05/2026 | 01:00:00 | 39.0 | 0.0 | * | 99.9 | 991.6 | 17.2 | 0.0 | 0.0 |
| 08/05/2026 | 00:30:00 | 36.3 | 0.0 | * | 99.9 | 991.8 | 17.2 | 0.0 | 0.0 |
| 08/05/2026 | 00:00:00 | 45.7 | 0.0 | * | 99.9 | 991.9 | 16.4 | 0.0 | 0.0 |
| 07/05/2026 | 23:30:00 | 46.1 | 0.0 | * | 99.9 | 991.9 | 16.9 | 0.0 | 0.0 |
| 07/05/2026 | 23:00:00 | 58.0 | 0.0 | * | 99.9 | 991.9 | 16.8 | 0.0 | 0.0 |
| 07/05/2026 | 22:30:00 | 60.7 | 0.0 | * | 99.9 | 991.9 | 17.1 | 0.0 | 0.0 |
| 07/05/2026 | 22:00:00 | 63.6 | 0.0 | * | 99.9 | 991.8 | 17.0 | 0.0 | 0.0 |
| 07/05/2026 | 21:30:00 | 50.5 | 0.0 | * | 99.9 | 991.2 | 17.5 | 0.0 | 0.0 |
| 07/05/2026 | 21:00:00 | 70.7 | 0.0 | * | 99.9 | 991.3 | 16.2 | 0.0 | 0.0 |
| 07/05/2026 | 20:30:00 | 68.6 | 0.0 | * | 99.9 | 991.2 | 17.4 | 0.0 | 0.0 |
| 07/05/2026 | 20:00:00 | 60.8 | 0.0 | * | 99.9 | 991.0 | 18.1 | 0.0 | 0.0 |
Additonal Information
| Field | Value |
|---|---|
| mimetype | text/csv |
| filesize | 10.94 MB |
| timestamp | Fri, 05/08/2026 - 21:09 |
